sensor_id;sensor_type;location;lat;lon;timestamp;P1;durP1;ratioP1;P2;durP2;ratioP2
76065;SDS011;64763;48.928;8.474;2024-03-02T00:00:07;11.57;;;6.88;;
76065;SDS011;64763;48.928;8.474;2024-03-02T00:05:11;9.82;;;6.05;;
76065;SDS011;64763;48.928;8.474;2024-03-02T00:07:43;10.85;;;6.93;;
76065;SDS011;64763;48.928;8.474;2024-03-02T00:10:10;11.05;;;7.05;;
76065;SDS011;64763;48.928;8.474;2024-03-02T00:12:36;10.90;;;6.53;;
76065;SDS011;64763;48.928;8.474;2024-03-02T00:15:04;12.57;;;6.82;;
76065;SDS011;64763;48.928;8.474;2024-03-02T00:17:31;15.27;;;8.48;;
76065;SDS011;64763;48.928;8.474;2024-03-02T00:19:56;29.02;;;12.32;;
76065;SDS011;64763;48.928;8.474;2024-03-02T00:22:21;22.63;;;10.88;;
76065;SDS011;64763;48.928;8.474;2024-03-02T00:24:47;19.50;;;9.85;;
76065;SDS011;64763;48.928;8.474;2024-03-02T00:27:12;19.63;;;10.32;;
76065;SDS011;64763;48.928;8.474;2024-03-02T00:29:40;20.75;;;10.40;;
76065;SDS011;64763;48.928;8.474;2024-03-02T00:32:08;18.27;;;9.32;;
76065;SDS011;64763;48.928;8.474;2024-03-02T00:34:38;20.75;;;9.40;;
76065;SDS011;64763;48.928;8.474;2024-03-02T00:37:03;21.67;;;9.75;;
76065;SDS011;64763;48.928;8.474;2024-03-02T00:39:28;16.17;;;9.10;;
76065;SDS011;64763;48.928;8.474;2024-03-02T00:41:54;15.13;;;7.22;;
76065;SDS011;64763;48.928;8.474;2024-03-02T00:44:19;9.52;;;6.32;;
76065;SDS011;64763;48.928;8.474;2024-03-02T00:46:47;8.98;;;5.07;;
76065;SDS011;64763;48.928;8.474;2024-03-02T00:49:16;7.38;;;4.43;;
76065;SDS011;64763;48.928;8.474;2024-03-02T00:51:46;7.22;;;4.65;;
76065;SDS011;64763;48.928;8.474;2024-03-02T00:54:13;6.28;;;3.97;;
76065;SDS011;64763;48.928;8.474;2024-03-02T00:56:39;8.75;;;4.50;;
76065;SDS011;64763;48.928;8.474;2024-03-02T00:59:06;4.50;;;3.22;;
76065;SDS011;64763;48.928;8.474;2024-03-02T01:01:31;9.88;;;4.18;;
76065;SDS011;64763;48.928;8.474;2024-03-02T01:03:57;7.50;;;4.15;;
76065;SDS011;64763;48.928;8.474;2024-03-02T01:06:22;8.00;;;4.32;;
76065;SDS011;64763;48.928;8.474;2024-03-02T01:08:48;7.45;;;4.30;;
76065;SDS011;64763;48.928;8.474;2024-03-02T01:11:16;9.27;;;4.80;;
76065;SDS011;64763;48.928;8.474;2024-03-02T01:13:41;7.82;;;5.15;;
76065;SDS011;64763;48.928;8.474;2024-03-02T01:16:07;9.15;;;4.60;;
76065;SDS011;64763;48.928;8.474;2024-03-02T01:18:32;8.73;;;4.50;;
76065;SDS011;64763;48.928;8.474;2024-03-02T01:20:58;9.55;;;4.72;;
76065;SDS011;64763;48.928;8.474;2024-03-02T01:23:23;6.55;;;4.05;;
76065;SDS011;64763;48.928;8.474;2024-03-02T01:25:49;8.00;;;4.55;;
76065;SDS011;64763;48.928;8.474;2024-03-02T01:28:15;7.85;;;4.47;;
76065;SDS011;64763;48.928;8.474;2024-03-02T01:30:41;8.25;;;4.75;;
76065;SDS011;64763;48.928;8.474;2024-03-02T01:33:06;5.90;;;3.65;;
76065;SDS011;64763;48.928;8.474;2024-03-02T01:35:32;7.32;;;3.80;;
76065;SDS011;64763;48.928;8.474;2024-03-02T01:37:57;7.30;;;3.53;;
76065;SDS011;64763;48.928;8.474;2024-03-02T01:40:23;4.57;;;2.92;;
76065;SDS011;64763;48.928;8.474;2024-03-02T01:42:52;3.35;;;2.47;;
76065;SDS011;64763;48.928;8.474;2024-03-02T01:45:23;3.35;;;2.25;;
76065;SDS011;64763;48.928;8.474;2024-03-02T01:47:49;4.00;;;2.45;;
76065;SDS011;64763;48.928;8.474;2024-03-02T01:50:14;3.88;;;2.50;;
76065;SDS011;64763;48.928;8.474;2024-03-02T01:52:40;3.72;;;2.30;;
76065;SDS011;64763;48.928;8.474;2024-03-02T01:55:05;3.15;;;2.08;;
76065;SDS011;64763;48.928;8.474;2024-03-02T01:57:31;2.80;;;1.90;;
76065;SDS011;64763;48.928;8.474;2024-03-02T01:59:57;2.92;;;2.00;;
76065;SDS011;64763;48.928;8.474;2024-03-02T02:02:22;3.78;;;2.17;;
76065;SDS011;64763;48.928;8.474;2024-03-02T02:04:47;3.30;;;2.20;;
76065;SDS011;64763;48.928;8.474;2024-03-02T02:07:13;5.05;;;2.20;;
76065;SDS011;64763;48.928;8.474;2024-03-02T02:09:40;4.65;;;3.08;;
76065;SDS011;64763;48.928;8.474;2024-03-02T02:12:06;6.38;;;2.90;;
76065;SDS011;64763;48.928;8.474;2024-03-02T02:14:32;7.70;;;3.25;;
76065;SDS011;64763;48.928;8.474;2024-03-02T02:16:58;6.70;;;3.03;;
76065;SDS011;64763;48.928;8.474;2024-03-02T02:19:24;6.03;;;3.35;;
76065;SDS011;64763;48.928;8.474;2024-03-02T02:21:49;5.95;;;3.28;;
76065;SDS011;64763;48.928;8.474;2024-03-02T02:24:14;4.78;;;2.83;;
76065;SDS011;64763;48.928;8.474;2024-03-02T02:26:40;4.45;;;3.17;;
76065;SDS011;64763;48.928;8.474;2024-03-02T02:29:05;3.63;;;2.40;;
76065;SDS011;64763;48.928;8.474;2024-03-02T02:31:40;4.40;;;2.95;;
76065;SDS011;64763;48.928;8.474;2024-03-02T02:34:06;6.68;;;3.30;;
76065;SDS011;64763;48.928;8.474;2024-03-02T02:36:31;4.53;;;2.55;;
76065;SDS011;64763;48.928;8.474;2024-03-02T02:38:57;4.22;;;2.53;;
76065;SDS011;64763;48.928;8.474;2024-03-02T02:41:25;3.75;;;2.22;;
76065;SDS011;64763;48.928;8.474;2024-03-02T02:43:51;5.07;;;3.10;;
76065;SDS011;64763;48.928;8.474;2024-03-02T02:46:16;4.10;;;2.35;;
76065;SDS011;64763;48.928;8.474;2024-03-02T02:48:41;4.40;;;2.95;;
76065;SDS011;64763;48.928;8.474;2024-03-02T02:51:07;3.13;;;2.10;;
76065;SDS011;64763;48.928;8.474;2024-03-02T02:53:32;3.97;;;2.20;;
76065;SDS011;64763;48.928;8.474;2024-03-02T02:55:57;2.80;;;1.95;;
76065;SDS011;64763;48.928;8.474;2024-03-02T02:58:23;3.28;;;2.20;;
76065;SDS011;64763;48.928;8.474;2024-03-02T03:00:48;3.38;;;2.45;;
76065;SDS011;64763;48.928;8.474;2024-03-02T03:03:14;2.58;;;1.90;;
76065;SDS011;64763;48.928;8.474;2024-03-02T03:05:39;4.80;;;2.00;;
76065;SDS011;64763;48.928;8.474;2024-03-02T03:08:04;3.50;;;1.90;;
76065;SDS011;64763;48.928;8.474;2024-03-02T03:10:30;3.45;;;1.92;;
76065;SDS011;64763;48.928;8.474;2024-03-02T03:12:55;2.63;;;2.10;;
76065;SDS011;64763;48.928;8.474;2024-03-02T03:15:21;4.85;;;1.88;;
76065;SDS011;64763;48.928;8.474;2024-03-02T03:17:46;2.58;;;1.70;;
76065;SDS011;64763;48.928;8.474;2024-03-02T03:20:12;3.40;;;2.20;;
76065;SDS011;64763;48.928;8.474;2024-03-02T03:22:38;2.80;;;1.67;;
76065;SDS011;64763;48.928;8.474;2024-03-02T03:25:04;3.08;;;2.00;;
76065;SDS011;64763;48.928;8.474;2024-03-02T03:27:30;3.10;;;2.08;;
76065;SDS011;64763;48.928;8.474;2024-03-02T03:29:55;2.53;;;1.65;;
76065;SDS011;64763;48.928;8.474;2024-03-02T03:32:20;3.08;;;1.90;;
76065;SDS011;64763;48.928;8.474;2024-03-02T03:34:46;3.45;;;2.00;;
76065;SDS011;64763;48.928;8.474;2024-03-02T03:37:13;3.70;;;2.15;;
76065;SDS011;64763;48.928;8.474;2024-03-02T03:39:38;3.55;;;2.65;;
76065;SDS011;64763;48.928;8.474;2024-03-02T03:42:03;3.60;;;2.60;;
76065;SDS011;64763;48.928;8.474;2024-03-02T03:44:29;3.72;;;2.67;;
76065;SDS011;64763;48.928;8.474;2024-03-02T03:46:54;3.42;;;2.33;;
76065;SDS011;64763;48.928;8.474;2024-03-02T03:49:20;3.08;;;2.20;;
76065;SDS011;64763;48.928;8.474;2024-03-02T03:51:45;3.80;;;2.28;;
76065;SDS011;64763;48.928;8.474;2024-03-02T03:54:11;5.35;;;2.50;;
76065;SDS011;64763;48.928;8.474;2024-03-02T03:56:36;5.38;;;3.20;;
76065;SDS011;64763;48.928;8.474;2024-03-02T03:59:02;4.78;;;2.70;;
76065;SDS011;64763;48.928;8.474;2024-03-02T04:01:27;4.70;;;2.70;;
76065;SDS011;64763;48.928;8.474;2024-03-02T04:03:53;5.30;;;2.38;;
76065;SDS011;64763;48.928;8.474;2024-03-02T04:06:18;3.72;;;2.40;;
76065;SDS011;64763;48.928;8.474;2024-03-02T04:08:43;4.75;;;2.33;;
76065;SDS011;64763;48.928;8.474;2024-03-02T04:11:09;3.80;;;2.08;;
76065;SDS011;64763;48.928;8.474;2024-03-02T04:13:34;4.53;;;2.47;;
76065;SDS011;64763;48.928;8.474;2024-03-02T04:15:59;4.85;;;2.75;;
76065;SDS011;64763;48.928;8.474;2024-03-02T04:18:25;5.03;;;3.10;;
76065;SDS011;64763;48.928;8.474;2024-03-02T04:20:50;7.10;;;4.97;;
76065;SDS011;64763;48.928;8.474;2024-03-02T04:23:15;4.70;;;2.90;;
76065;SDS011;64763;48.928;8.474;2024-03-02T04:25:41;3.70;;;2.83;;
76065;SDS011;64763;48.928;8.474;2024-03-02T04:28:06;6.00;;;2.90;;
76065;SDS011;64763;48.928;8.474;2024-03-02T04:30:31;4.32;;;2.83;;
76065;SDS011;64763;48.928;8.474;2024-03-02T04:32:57;4.82;;;2.60;;
76065;SDS011;64763;48.928;8.474;2024-03-02T04:35:22;4.60;;;2.85;;
76065;SDS011;64763;48.928;8.474;2024-03-02T04:37:48;3.83;;;2.40;;
76065;SDS011;64763;48.928;8.474;2024-03-02T04:40:13;4.82;;;2.80;;
76065;SDS011;64763;48.928;8.474;2024-03-02T04:42:39;5.20;;;3.28;;
76065;SDS011;64763;48.928;8.474;2024-03-02T04:45:04;3.20;;;2.17;;
76065;SDS011;64763;48.928;8.474;2024-03-02T04:47:29;3.50;;;2.28;;
76065;SDS011;64763;48.928;8.474;2024-03-02T04:49:55;3.08;;;2.30;;
76065;SDS011;64763;48.928;8.474;2024-03-02T04:52:20;3.30;;;2.15;;
76065;SDS011;64763;48.928;8.474;2024-03-02T04:54:45;3.50;;;2.63;;
76065;SDS011;64763;48.928;8.474;2024-03-02T04:57:29;2.95;;;2.08;;
76065;SDS011;64763;48.928;8.474;2024-03-02T04:59:54;3.53;;;2.50;;
76065;SDS011;64763;48.928;8.474;2024-03-02T05:02:20;3.97;;;2.38;;
76065;SDS011;64763;48.928;8.474;2024-03-02T05:04:45;3.10;;;1.90;;
76065;SDS011;64763;48.928;8.474;2024-03-02T05:07:10;4.15;;;2.03;;
76065;SDS011;64763;48.928;8.474;2024-03-02T05:09:36;4.68;;;2.03;;
76065;SDS011;64763;48.928;8.474;2024-03-02T05:12:02;2.63;;;1.90;;
76065;SDS011;64763;48.928;8.474;2024-03-02T05:14:36;5.40;;;1.98;;
76065;SDS011;64763;48.928;8.474;2024-03-02T05:17:02;3.78;;;2.17;;
76065;SDS011;64763;48.928;8.474;2024-03-02T05:19:27;2.70;;;1.75;;
76065;SDS011;64763;48.928;8.474;2024-03-02T05:21:53;2.67;;;1.90;;
76065;SDS011;64763;48.928;8.474;2024-03-02T05:24:18;2.60;;;1.75;;
76065;SDS011;64763;48.928;8.474;2024-03-02T05:26:44;2.67;;;1.80;;
76065;SDS011;64763;48.928;8.474;2024-03-02T05:29:09;2.88;;;1.80;;
76065;SDS011;64763;48.928;8.474;2024-03-02T05:31:34;3.78;;;2.00;;
76065;SDS011;64763;48.928;8.474;2024-03-02T05:34:00;2.78;;;2.00;;
76065;SDS011;64763;48.928;8.474;2024-03-02T05:36:25;2.58;;;1.63;;
76065;SDS011;64763;48.928;8.474;2024-03-02T05:38:50;2.70;;;1.90;;
76065;SDS011;64763;48.928;8.474;2024-03-02T05:41:16;2.30;;;1.70;;
76065;SDS011;64763;48.928;8.474;2024-03-02T05:43:41;3.20;;;2.25;;
76065;SDS011;64763;48.928;8.474;2024-03-02T05:46:07;3.22;;;2.08;;
76065;SDS011;64763;48.928;8.474;2024-03-02T05:48:32;3.35;;;2.20;;
76065;SDS011;64763;48.928;8.474;2024-03-02T05:50:57;6.55;;;2.05;;
76065;SDS011;64763;48.928;8.474;2024-03-02T05:55:48;2.03;;;1.13;;
76065;SDS011;64763;48.928;8.474;2024-03-02T05:58:18;3.20;;;1.63;;
76065;SDS011;64763;48.928;8.474;2024-03-02T06:00:49;2.33;;;1.60;;
76065;SDS011;64763;48.928;8.474;2024-03-02T06:03:15;2.70;;;1.75;;
76065;SDS011;64763;48.928;8.474;2024-03-02T06:08:06;2.80;;;1.83;;
76065;SDS011;64763;48.928;8.474;2024-03-02T06:10:32;2.17;;;1.52;;
76065;SDS011;64763;48.928;8.474;2024-03-02T06:12:57;5.38;;;1.50;;
76065;SDS011;64763;48.928;8.474;2024-03-02T06:15:24;2.05;;;1.60;;
76065;SDS011;64763;48.928;8.474;2024-03-02T06:17:49;2.35;;;1.85;;
76065;SDS011;64763;48.928;8.474;2024-03-02T06:20:15;3.03;;;2.03;;
76065;SDS011;64763;48.928;8.474;2024-03-02T06:22:40;3.20;;;2.00;;
76065;SDS011;64763;48.928;8.474;2024-03-02T06:25:05;5.30;;;1.90;;
76065;SDS011;64763;48.928;8.474;2024-03-02T06:27:31;2.72;;;1.83;;
76065;SDS011;64763;48.928;8.474;2024-03-02T06:29:56;2.53;;;1.80;;
76065;SDS011;64763;48.928;8.474;2024-03-02T06:32:22;2.90;;;2.00;;
76065;SDS011;64763;48.928;8.474;2024-03-02T06:34:49;3.88;;;2.20;;
76065;SDS011;64763;48.928;8.474;2024-03-02T06:37:15;3.80;;;2.03;;
76065;SDS011;64763;48.928;8.474;2024-03-02T06:39:41;3.58;;;2.22;;
76065;SDS011;64763;48.928;8.474;2024-03-02T06:42:06;4.78;;;2.42;;
76065;SDS011;64763;48.928;8.474;2024-03-02T06:44:31;4.80;;;2.60;;
76065;SDS011;64763;48.928;8.474;2024-03-02T06:46:57;3.83;;;1.95;;
76065;SDS011;64763;48.928;8.474;2024-03-02T06:49:22;5.82;;;2.72;;
76065;SDS011;64763;48.928;8.474;2024-03-02T06:51:47;13.25;;;6.85;;
76065;SDS011;64763;48.928;8.474;2024-03-02T06:54:13;12.55;;;5.72;;
76065;SDS011;64763;48.928;8.474;2024-03-02T06:56:38;7.57;;;4.53;;
76065;SDS011;64763;48.928;8.474;2024-03-02T06:59:04;10.32;;;5.28;;
76065;SDS011;64763;48.928;8.474;2024-03-02T07:01:29;8.57;;;4.35;;
76065;SDS011;64763;48.928;8.474;2024-03-02T07:03:55;12.32;;;6.35;;
76065;SDS011;64763;48.928;8.474;2024-03-02T07:06:20;8.27;;;5.25;;
76065;SDS011;64763;48.928;8.474;2024-03-02T07:08:45;9.63;;;5.43;;
76065;SDS011;64763;48.928;8.474;2024-03-02T07:11:11;7.20;;;4.50;;
76065;SDS011;64763;48.928;8.474;2024-03-02T07:13:36;6.05;;;4.35;;
76065;SDS011;64763;48.928;8.474;2024-03-02T07:16:01;7.25;;;4.72;;
76065;SDS011;64763;48.928;8.474;2024-03-02T07:18:35;5.40;;;3.60;;
76065;SDS011;64763;48.928;8.474;2024-03-02T07:21:09;5.38;;;3.63;;
76065;SDS011;64763;48.928;8.474;2024-03-02T07:23:34;6.63;;;4.65;;
76065;SDS011;64763;48.928;8.474;2024-03-02T07:26:00;6.70;;;4.22;;
76065;SDS011;64763;48.928;8.474;2024-03-02T07:28:26;5.90;;;4.40;;
76065;SDS011;64763;48.928;8.474;2024-03-02T07:31:01;11.10;;;4.65;;
76065;SDS011;64763;48.928;8.474;2024-03-02T07:33:28;7.80;;;4.47;;
76065;SDS011;64763;48.928;8.474;2024-03-02T07:35:53;5.40;;;3.08;;
76065;SDS011;64763;48.928;8.474;2024-03-02T07:38:20;6.10;;;3.35;;
76065;SDS011;64763;48.928;8.474;2024-03-02T07:40:46;4.63;;;3.10;;
76065;SDS011;64763;48.928;8.474;2024-03-02T07:43:11;5.57;;;3.38;;
76065;SDS011;64763;48.928;8.474;2024-03-02T07:45:37;6.03;;;3.80;;
76065;SDS011;64763;48.928;8.474;2024-03-02T07:48:02;6.00;;;3.78;;
76065;SDS011;64763;48.928;8.474;2024-03-02T07:50:29;6.28;;;3.78;;
76065;SDS011;64763;48.928;8.474;2024-03-02T07:52:55;6.60;;;4.68;;
76065;SDS011;64763;48.928;8.474;2024-03-02T07:55:20;6.78;;;4.00;;
76065;SDS011;64763;48.928;8.474;2024-03-02T07:57:46;5.25;;;3.65;;
76065;SDS011;64763;48.928;8.474;2024-03-02T08:00:11;6.00;;;3.88;;
76065;SDS011;64763;48.928;8.474;2024-03-02T08:02:37;5.20;;;3.60;;
76065;SDS011;64763;48.928;8.474;2024-03-02T08:05:02;5.90;;;3.70;;
76065;SDS011;64763;48.928;8.474;2024-03-02T08:07:27;7.40;;;3.40;;
76065;SDS011;64763;48.928;8.474;2024-03-02T08:09:53;4.05;;;2.83;;
76065;SDS011;64763;48.928;8.474;2024-03-02T08:12:18;5.20;;;2.92;;
76065;SDS011;64763;48.928;8.474;2024-03-02T08:14:44;5.78;;;3.70;;
76065;SDS011;64763;48.928;8.474;2024-03-02T08:17:10;6.43;;;3.47;;
76065;SDS011;64763;48.928;8.474;2024-03-02T08:19:36;9.80;;;5.03;;
76065;SDS011;64763;48.928;8.474;2024-03-02T08:22:02;5.72;;;3.17;;
76065;SDS011;64763;48.928;8.474;2024-03-02T08:24:28;6.18;;;3.00;;
76065;SDS011;64763;48.928;8.474;2024-03-02T08:26:53;4.97;;;2.60;;
76065;SDS011;64763;48.928;8.474;2024-03-02T08:29:19;2.33;;;1.70;;
76065;SDS011;64763;48.928;8.474;2024-03-02T08:31:44;2.95;;;2.22;;
76065;SDS011;64763;48.928;8.474;2024-03-02T08:34:09;3.05;;;2.25;;
76065;SDS011;64763;48.928;8.474;2024-03-02T08:36:35;4.60;;;3.00;;
76065;SDS011;64763;48.928;8.474;2024-03-02T08:39:01;4.18;;;2.67;;
76065;SDS011;64763;48.928;8.474;2024-03-02T08:41:27;5.47;;;2.53;;
76065;SDS011;64763;48.928;8.474;2024-03-02T08:43:52;3.50;;;2.25;;
76065;SDS011;64763;48.928;8.474;2024-03-02T08:46:17;3.30;;;2.00;;
76065;SDS011;64763;48.928;8.474;2024-03-02T08:48:43;2.88;;;1.98;;
76065;SDS011;64763;48.928;8.474;2024-03-02T08:51:08;4.68;;;2.15;;
76065;SDS011;64763;48.928;8.474;2024-03-02T08:53:35;2.40;;;1.60;;
76065;SDS011;64763;48.928;8.474;2024-03-02T08:56:00;2.38;;;1.60;;
76065;SDS011;64763;48.928;8.474;2024-03-02T08:58:26;2.10;;;1.60;;
76065;SDS011;64763;48.928;8.474;2024-03-02T09:00:51;2.03;;;1.48;;
76065;SDS011;64763;48.928;8.474;2024-03-02T09:03:16;2.00;;;1.38;;
76065;SDS011;64763;48.928;8.474;2024-03-02T09:05:42;2.72;;;1.33;;
76065;SDS011;64763;48.928;8.474;2024-03-02T09:08:08;2.20;;;1.40;;
76065;SDS011;64763;48.928;8.474;2024-03-02T09:10:33;2.33;;;1.30;;
76065;SDS011;64763;48.928;8.474;2024-03-02T09:12:58;1.63;;;1.23;;
76065;SDS011;64763;48.928;8.474;2024-03-02T09:15:24;2.53;;;1.45;;
76065;SDS011;64763;48.928;8.474;2024-03-02T09:17:49;2.22;;;1.40;;
76065;SDS011;64763;48.928;8.474;2024-03-02T09:20:15;1.95;;;1.40;;
76065;SDS011;64763;48.928;8.474;2024-03-02T09:22:41;2.47;;;1.30;;
76065;SDS011;64763;48.928;8.474;2024-03-02T09:25:07;1.30;;;1.20;;
76065;SDS011;64763;48.928;8.474;2024-03-02T09:27:35;1.95;;;1.13;;
76065;SDS011;64763;48.928;8.474;2024-03-02T09:30:01;1.75;;;1.25;;
76065;SDS011;64763;48.928;8.474;2024-03-02T09:32:27;1.77;;;1.50;;
76065;SDS011;64763;48.928;8.474;2024-03-02T09:34:53;1.70;;;1.20;;
76065;SDS011;64763;48.928;8.474;2024-03-02T09:37:18;1.98;;;1.35;;
76065;SDS011;64763;48.928;8.474;2024-03-02T09:39:43;1.20;;;1.10;;
76065;SDS011;64763;48.928;8.474;2024-03-02T09:42:10;2.33;;;1.23;;
76065;SDS011;64763;48.928;8.474;2024-03-02T09:44:36;1.23;;;1.08;;
76065;SDS011;64763;48.928;8.474;2024-03-02T09:47:02;1.17;;;1.05;;
76065;SDS011;64763;48.928;8.474;2024-03-02T09:49:27;1.02;;;0.90;;
76065;SDS011;64763;48.928;8.474;2024-03-02T09:51:52;1.25;;;1.10;;
76065;SDS011;64763;48.928;8.474;2024-03-02T09:54:18;2.03;;;0.80;;
76065;SDS011;64763;48.928;8.474;2024-03-02T09:56:44;2.30;;;1.42;;
76065;SDS011;64763;48.928;8.474;2024-03-02T09:59:09;1.60;;;1.17;;
76065;SDS011;64763;48.928;8.474;2024-03-02T10:01:35;1.48;;;1.17;;
76065;SDS011;64763;48.928;8.474;2024-03-02T10:04:00;2.83;;;1.48;;
76065;SDS011;64763;48.928;8.474;2024-03-02T10:06:28;0.93;;;0.80;;
76065;SDS011;64763;48.928;8.474;2024-03-02T10:08:54;1.35;;;1.05;;
76065;SDS011;64763;48.928;8.474;2024-03-02T10:14:03;2.05;;;1.20;;
76065;SDS011;64763;48.928;8.474;2024-03-02T10:16:32;1.45;;;1.20;;
76065;SDS011;64763;48.928;8.474;2024-03-02T10:19:17;2.03;;;1.20;;
76065;SDS011;64763;48.928;8.474;2024-03-02T10:21:50;1.67;;;1.10;;
76065;SDS011;64763;48.928;8.474;2024-03-02T10:24:17;1.90;;;1.30;;
76065;SDS011;64763;48.928;8.474;2024-03-02T10:26:43;2.28;;;1.42;;
76065;SDS011;64763;48.928;8.474;2024-03-02T10:29:09;1.23;;;1.00;;
76065;SDS011;64763;48.928;8.474;2024-03-02T10:31:36;1.88;;;1.17;;
76065;SDS011;64763;48.928;8.474;2024-03-02T10:34:02;1.60;;;1.05;;
76065;SDS011;64763;48.928;8.474;2024-03-02T10:36:28;1.50;;;1.10;;
76065;SDS011;64763;48.928;8.474;2024-03-02T10:38:56;2.38;;;1.42;;
76065;SDS011;64763;48.928;8.474;2024-03-02T10:41:26;2.03;;;1.33;;
76065;SDS011;64763;48.928;8.474;2024-03-02T10:43:54;2.13;;;1.25;;
76065;SDS011;64763;48.928;8.474;2024-03-02T10:46:34;2.33;;;1.23;;
76065;SDS011;64763;48.928;8.474;2024-03-02T10:49:00;2.20;;;1.38;;
76065;SDS011;64763;48.928;8.474;2024-03-02T10:51:28;1.92;;;1.40;;
76065;SDS011;64763;48.928;8.474;2024-03-02T10:53:56;2.20;;;1.30;;
76065;SDS011;64763;48.928;8.474;2024-03-02T10:56:29;2.00;;;1.52;;
76065;SDS011;64763;48.928;8.474;2024-03-02T10:59:08;1.90;;;1.33;;
76065;SDS011;64763;48.928;8.474;2024-03-02T11:01:34;3.15;;;1.42;;
76065;SDS011;64763;48.928;8.474;2024-03-02T11:04:00;2.05;;;1.20;;
76065;SDS011;64763;48.928;8.474;2024-03-02T11:06:28;3.10;;;1.70;;
76065;SDS011;64763;48.928;8.474;2024-03-02T11:08:55;4.18;;;1.73;;
76065;SDS011;64763;48.928;8.474;2024-03-02T11:11:27;2.17;;;1.63;;
76065;SDS011;64763;48.928;8.474;2024-03-02T11:13:55;2.42;;;1.70;;
76065;SDS011;64763;48.928;8.474;2024-03-02T11:16:31;5.22;;;1.80;;
76065;SDS011;64763;48.928;8.474;2024-03-02T11:19:02;1.98;;;1.48;;
76065;SDS011;64763;48.928;8.474;2024-03-02T11:21:30;2.13;;;1.40;;
76065;SDS011;64763;48.928;8.474;2024-03-02T11:23:57;3.22;;;1.40;;
76065;SDS011;64763;48.928;8.474;2024-03-02T11:26:23;3.60;;;1.88;;
76065;SDS011;64763;48.928;8.474;2024-03-02T11:28:49;1.55;;;1.20;;
76065;SDS011;64763;48.928;8.474;2024-03-02T11:31:15;1.88;;;1.38;;
76065;SDS011;64763;48.928;8.474;2024-03-02T11:33:40;2.50;;;1.38;;
76065;SDS011;64763;48.928;8.474;2024-03-02T11:36:08;2.03;;;1.40;;
76065;SDS011;64763;48.928;8.474;2024-03-02T11:38:34;2.28;;;1.52;;
76065;SDS011;64763;48.928;8.474;2024-03-02T11:41:05;2.28;;;1.50;;
76065;SDS011;64763;48.928;8.474;2024-03-02T11:43:38;2.60;;;1.60;;
76065;SDS011;64763;48.928;8.474;2024-03-02T11:46:06;2.58;;;1.70;;
76065;SDS011;64763;48.928;8.474;2024-03-02T11:48:32;2.17;;;1.67;;
76065;SDS011;64763;48.928;8.474;2024-03-02T11:50:59;3.40;;;1.70;;
76065;SDS011;64763;48.928;8.474;2024-03-02T11:53:28;2.17;;;1.55;;
76065;SDS011;64763;48.928;8.474;2024-03-02T11:55:57;3.50;;;1.70;;
76065;SDS011;64763;48.928;8.474;2024-03-02T11:58:23;2.50;;;1.63;;
76065;SDS011;64763;48.928;8.474;2024-03-02T12:00:54;2.47;;;1.55;;
76065;SDS011;64763;48.928;8.474;2024-03-02T12:03:21;3.10;;;1.58;;
76065;SDS011;64763;48.928;8.474;2024-03-02T12:05:50;3.88;;;1.90;;
76065;SDS011;64763;48.928;8.474;2024-03-02T12:08:17;2.55;;;1.75;;
76065;SDS011;64763;48.928;8.474;2024-03-02T12:10:59;2.58;;;1.88;;
76065;SDS011;64763;48.928;8.474;2024-03-02T12:13:28;2.33;;;1.60;;
76065;SDS011;64763;48.928;8.474;2024-03-02T12:15:54;3.08;;;1.98;;
76065;SDS011;64763;48.928;8.474;2024-03-02T12:18:21;4.15;;;2.15;;
76065;SDS011;64763;48.928;8.474;2024-03-02T12:20:46;2.65;;;1.92;;
76065;SDS011;64763;48.928;8.474;2024-03-02T12:23:14;3.28;;;2.03;;
76065;SDS011;64763;48.928;8.474;2024-03-02T12:25:39;3.85;;;2.10;;
76065;SDS011;64763;48.928;8.474;2024-03-02T12:28:05;3.10;;;2.00;;
76065;SDS011;64763;48.928;8.474;2024-03-02T12:30:31;3.53;;;2.47;;
76065;SDS011;64763;48.928;8.474;2024-03-02T12:33:05;5.10;;;2.28;;
76065;SDS011;64763;48.928;8.474;2024-03-02T12:35:30;3.95;;;2.03;;
76065;SDS011;64763;48.928;8.474;2024-03-02T12:37:56;2.65;;;1.88;;
76065;SDS011;64763;48.928;8.474;2024-03-02T12:40:22;3.15;;;2.03;;
76065;SDS011;64763;48.928;8.474;2024-03-02T12:42:47;3.65;;;2.50;;
76065;SDS011;64763;48.928;8.474;2024-03-02T12:45:13;3.38;;;2.10;;
76065;SDS011;64763;48.928;8.474;2024-03-02T12:47:41;3.83;;;2.58;;
76065;SDS011;64763;48.928;8.474;2024-03-02T12:50:10;3.72;;;2.00;;
76065;SDS011;64763;48.928;8.474;2024-03-02T12:52:35;2.70;;;2.05;;
76065;SDS011;64763;48.928;8.474;2024-03-02T12:55:01;4.85;;;2.30;;
76065;SDS011;64763;48.928;8.474;2024-03-02T12:57:29;2.40;;;1.88;;
76065;SDS011;64763;48.928;8.474;2024-03-02T12:59:59;3.08;;;1.80;;
76065;SDS011;64763;48.928;8.474;2024-03-02T13:02:45;2.40;;;1.75;;
76065;SDS011;64763;48.928;8.474;2024-03-02T13:05:11;2.90;;;1.88;;
76065;SDS011;64763;48.928;8.474;2024-03-02T13:07:36;2.90;;;1.73;;
76065;SDS011;64763;48.928;8.474;2024-03-02T13:10:03;2.72;;;2.00;;
76065;SDS011;64763;48.928;8.474;2024-03-02T13:12:29;3.75;;;2.20;;
76065;SDS011;64763;48.928;8.474;2024-03-02T13:14:55;3.17;;;1.90;;
76065;SDS011;64763;48.928;8.474;2024-03-02T13:17:20;2.53;;;1.70;;
76065;SDS011;64763;48.928;8.474;2024-03-02T13:19:52;2.83;;;1.90;;
76065;SDS011;64763;48.928;8.474;2024-03-02T13:22:18;3.85;;;1.95;;
76065;SDS011;64763;48.928;8.474;2024-03-02T13:24:44;3.10;;;1.80;;
76065;SDS011;64763;48.928;8.474;2024-03-02T13:27:09;2.92;;;1.95;;
76065;SDS011;64763;48.928;8.474;2024-03-02T13:29:34;2.90;;;1.98;;
76065;SDS011;64763;48.928;8.474;2024-03-02T13:32:00;4.22;;;2.00;;
76065;SDS011;64763;48.928;8.474;2024-03-02T13:34:25;2.60;;;1.67;;
76065;SDS011;64763;48.928;8.474;2024-03-02T13:36:50;3.25;;;1.90;;
76065;SDS011;64763;48.928;8.474;2024-03-02T13:39:16;5.68;;;1.60;;
76065;SDS011;64763;48.928;8.474;2024-03-02T13:41:41;3.17;;;1.77;;
76065;SDS011;64763;48.928;8.474;2024-03-02T13:44:07;3.20;;;1.60;;
76065;SDS011;64763;48.928;8.474;2024-03-02T13:46:32;3.67;;;1.80;;
76065;SDS011;64763;48.928;8.474;2024-03-02T13:48:57;2.60;;;1.70;;
76065;SDS011;64763;48.928;8.474;2024-03-02T13:51:23;3.15;;;1.85;;
76065;SDS011;64763;48.928;8.474;2024-03-02T13:53:50;4.43;;;1.85;;
76065;SDS011;64763;48.928;8.474;2024-03-02T13:56:15;1.77;;;1.35;;
76065;SDS011;64763;48.928;8.474;2024-03-02T13:58:41;2.70;;;1.50;;
76065;SDS011;64763;48.928;8.474;2024-03-02T14:01:08;2.53;;;1.70;;
76065;SDS011;64763;48.928;8.474;2024-03-02T14:03:34;2.72;;;1.60;;
76065;SDS011;64763;48.928;8.474;2024-03-02T14:05:59;2.92;;;1.67;;
76065;SDS011;64763;48.928;8.474;2024-03-02T14:08:24;2.78;;;1.90;;
76065;SDS011;64763;48.928;8.474;2024-03-02T14:10:50;3.65;;;1.67;;
76065;SDS011;64763;48.928;8.474;2024-03-02T14:13:15;3.15;;;1.50;;
76065;SDS011;64763;48.928;8.474;2024-03-02T14:15:41;2.60;;;1.70;;
76065;SDS011;64763;48.928;8.474;2024-03-02T14:18:07;2.17;;;1.60;;
76065;SDS011;64763;48.928;8.474;2024-03-02T14:20:34;2.67;;;1.77;;
76065;SDS011;64763;48.928;8.474;2024-03-02T14:23:00;2.97;;;1.67;;
76065;SDS011;64763;48.928;8.474;2024-03-02T14:25:27;2.10;;;1.50;;
76065;SDS011;64763;48.928;8.474;2024-03-02T14:27:56;2.30;;;1.70;;
76065;SDS011;64763;48.928;8.474;2024-03-02T14:30:22;2.33;;;1.50;;
76065;SDS011;64763;48.928;8.474;2024-03-02T14:32:48;2.35;;;1.50;;
76065;SDS011;64763;48.928;8.474;2024-03-02T14:35:13;2.85;;;1.70;;
76065;SDS011;64763;48.928;8.474;2024-03-02T14:37:38;2.28;;;1.45;;
76065;SDS011;64763;48.928;8.474;2024-03-02T14:40:04;1.88;;;1.50;;
76065;SDS011;64763;48.928;8.474;2024-03-02T14:42:31;4.70;;;1.65;;
76065;SDS011;64763;48.928;8.474;2024-03-02T14:44:57;2.35;;;1.50;;
76065;SDS011;64763;48.928;8.474;2024-03-02T14:47:22;2.38;;;1.42;;
76065;SDS011;64763;48.928;8.474;2024-03-02T14:49:48;2.13;;;1.50;;
76065;SDS011;64763;48.928;8.474;2024-03-02T14:52:13;2.97;;;1.35;;